Time;durP1;ratioP1;P1;durP2;ratioP2;P2;SDS_P1;SDS_P2;PMS_P1;PMS_P2;Temp;Humidity;BMP_temperature;BMP_pressure;BME280_temperature;BME280_humidity;BME280_pressure;Samples;Min_cycle;Max_cycle;Signal;HPM_P1;HPM_P2
2023/10/30 00:01:48;;;;;;;1.10;1.00;;;11.60;99.90;;;;;;4990882;28;20493;-61
2023/10/30 00:04:16;;;;;;;3.73;1.20;;;11.70;99.90;;;;;;4993634;28;20865;-61
2023/10/30 00:06:44;;;;;;;1.40;1.23;;;11.70;99.90;;;;;;4993655;28;20476;-61
2023/10/30 00:09:15;;;;;;;3.83;1.60;;;11.70;99.90;;;;;;4991782;28;20844;-61
2023/10/30 00:11:43;;;;;;;2.20;1.23;;;11.70;99.90;;;;;;4993918;28;21040;-61
2023/10/30 00:14:10;;;;;;;5.57;1.67;;;11.80;99.90;;;;;;4989031;28;20933;-61
2023/10/30 00:16:40;;;;;;;2.60;1.80;;;11.70;99.90;;;;;;4992425;28;20468;-61
2023/10/30 00:19:07;;;;;;;2.30;1.20;;;11.70;99.90;;;;;;4993899;28;20472;-61
2023/10/30 00:21:36;;;;;;;1.80;1.07;;;11.80;99.90;;;;;;4992298;28;20509;-62
2023/10/30 00:24:05;;;;;;;1.60;1.13;;;11.80;99.90;;;;;;4995286;28;20491;-63
2023/10/30 00:26:33;;;;;;;2.30;1.20;;;11.80;99.90;;;;;;4993271;28;20468;-61
2023/10/30 00:29:01;;;;;;;1.30;1.20;;;11.80;99.90;;;;;;4995264;28;20556;-61
2023/10/30 00:31:29;;;;;;;2.33;1.60;;;11.80;99.90;;;;;;4995888;28;20568;-61
2023/10/30 00:33:58;;;;;;;1.60;1.00;;;11.80;99.90;;;;;;4989914;28;21014;-61
2023/10/30 00:36:27;;;;;;;2.20;1.60;;;11.80;99.90;;;;;;4992854;28;20888;-61
2023/10/30 00:38:55;;;;;;;2.10;1.10;;;11.80;99.90;;;;;;4991088;28;20859;-61
2023/10/30 00:41:23;;;;;;;1.70;1.37;;;11.80;99.90;;;;;;4991650;28;20477;-61
2023/10/30 00:43:51;;;;;;;1.40;1.30;;;11.80;99.90;;;;;;4989325;28;20502;-61
2023/10/30 00:46:19;;;;;;;2.20;1.10;;;11.80;99.90;;;;;;4987215;28;20476;-62
2023/10/30 00:48:47;;;;;;;3.10;1.17;;;11.80;99.90;;;;;;4993931;28;20542;-61
2023/10/30 00:51:16;;;;;;;1.77;1.20;;;11.80;99.90;;;;;;4993822;28;20476;-62
2023/10/30 00:53:44;;;;;;;3.30;1.47;;;11.80;99.90;;;;;;4986706;28;21026;-61
2023/10/30 00:56:12;;;;;;;1.70;1.33;;;11.80;99.90;;;;;;4996440;28;20501;-61
2023/10/30 00:58:40;;;;;;;2.33;1.30;;;11.80;99.90;;;;;;4996352;28;20474;-61
2023/10/30 01:01:09;;;;;;;1.63;1.20;;;11.80;99.90;;;;;;4994017;28;20580;-61
2023/10/30 01:03:37;;;;;;;2.60;1.40;;;11.80;99.90;;;;;;4990382;28;20495;-61
2023/10/30 01:06:06;;;;;;;1.43;1.07;;;11.80;99.90;;;;;;4992085;28;20896;-62
2023/10/30 01:08:35;;;;;;;2.93;1.20;;;11.80;99.90;;;;;;4989930;28;20473;-61
2023/10/30 01:11:03;;;;;;;1.70;1.00;;;11.80;99.90;;;;;;4989991;28;20566;-61
2023/10/30 01:13:32;;;;;;;3.37;1.17;;;11.80;99.90;;;;;;4986940;28;21030;-61
2023/10/30 01:16:00;;;;;;;2.33;1.10;;;11.80;99.90;;;;;;4986439;28;20530;-62
2023/10/30 01:18:28;;;;;;;2.20;1.13;;;11.90;99.90;;;;;;4990581;28;20486;-60
2023/10/30 01:20:57;;;;;;;1.60;0.93;;;11.80;99.90;;;;;;4990259;28;20476;-60
2023/10/30 01:23:24;;;;;;;3.43;1.23;;;11.80;99.90;;;;;;4989478;28;20481;-60
2023/10/30 01:25:54;;;;;;;2.20;1.40;;;11.80;99.90;;;;;;4986243;28;20487;-61
2023/10/30 01:28:22;;;;;;;3.10;1.27;;;11.80;99.90;;;;;;4988485;28;20486;-60
2023/10/30 01:30:50;;;;;;;1.63;1.53;;;11.80;99.90;;;;;;4991105;28;20473;-61
2023/10/30 01:33:19;;;;;;;1.50;1.07;;;11.80;99.90;;;;;;4991648;28;20493;-61
2023/10/30 01:35:47;;;;;;;2.53;1.13;;;11.80;99.90;;;;;;4991190;28;20476;-60
2023/10/30 01:38:15;;;;;;;4.27;1.10;;;11.80;99.90;;;;;;4987124;28;20866;-61
2023/10/30 01:40:48;;;;;;;2.50;1.10;;;11.70;99.90;;;;;;4987451;28;20465;-61
2023/10/30 01:43:17;;;;;;;2.03;1.13;;;11.70;99.90;;;;;;4985537;28;20488;-61
2023/10/30 01:45:45;;;;;;;3.33;1.10;;;11.70;99.90;;;;;;4988893;28;20604;-60
2023/10/30 01:48:13;;;;;;;2.17;1.00;;;11.60;99.90;;;;;;4998320;28;20561;-60
2023/10/30 01:50:41;;;;;;;3.63;1.33;;;11.60;99.90;;;;;;5006074;28;20465;-61
2023/10/30 01:53:09;;;;;;;4.10;1.30;;;11.60;99.90;;;;;;5003836;28;20503;-61
2023/10/30 01:55:39;;;;;;;2.27;1.00;;;11.50;99.90;;;;;;5006762;28;20497;-60
2023/10/30 01:58:07;;;;;;;1.97;0.90;;;11.50;99.90;;;;;;5004695;28;20477;-61
2023/10/30 02:00:38;;;;;;;2.20;1.23;;;11.50;99.90;;;;;;4995455;28;20898;-61
2023/10/30 02:03:06;;;;;;;3.10;1.00;;;11.50;99.90;;;;;;4992043;28;20491;-61
2023/10/30 02:05:34;;;;;;;2.20;1.30;;;11.50;99.90;;;;;;4993194;28;20476;-60
2023/10/30 02:08:02;;;;;;;3.90;2.03;;;11.40;99.90;;;;;;4989351;28;20995;-61
2023/10/30 02:10:30;;;;;;;1.93;1.17;;;11.50;99.90;;;;;;4988593;28;20479;-61
2023/10/30 02:12:58;;;;;;;2.70;1.37;;;11.40;99.90;;;;;;4989649;28;20572;-61
2023/10/30 02:15:26;;;;;;;1.63;1.10;;;11.40;99.90;;;;;;4986543;28;20572;-61
2023/10/30 02:17:55;;;;;;;1.67;1.07;;;11.40;99.90;;;;;;4989216;28;20472;-61
2023/10/30 02:20:23;;;;;;;1.50;0.90;;;11.40;99.90;;;;;;4987897;28;21181;-61
2023/10/30 02:22:51;;;;;;;3.33;1.30;;;11.30;99.90;;;;;;4985434;28;20584;-61
2023/10/30 02:25:22;;;;;;;1.43;1.13;;;11.30;99.90;;;;;;4987052;28;21141;-61
2023/10/30 02:27:50;;;;;;;2.73;1.27;;;11.30;99.90;;;;;;4990963;28;20873;-60
2023/10/30 02:30:19;;;;;;;2.63;1.30;;;11.30;99.90;;;;;;4993825;28;20545;-62
2023/10/30 02:32:48;;;;;;;1.93;1.40;;;11.30;99.90;;;;;;4987419;28;20522;-61
2023/10/30 02:35:16;;;;;;;5.40;1.20;;;11.30;99.90;;;;;;4990928;28;20470;-61
2023/10/30 02:37:45;;;;;;;2.67;1.33;;;11.30;99.90;;;;;;4985328;28;20844;-61
2023/10/30 02:40:14;;;;;;;3.20;1.30;;;11.30;99.90;;;;;;4985704;28;21192;-61
2023/10/30 02:42:44;;;;;;;1.90;1.40;;;11.20;99.90;;;;;;4985413;28;20486;-60
2023/10/30 02:45:12;;;;;;;2.90;1.40;;;11.20;99.90;;;;;;4982773;28;20492;-60
2023/10/30 02:47:40;;;;;;;3.33;1.30;;;11.20;99.90;;;;;;4989542;28;20469;-61
2023/10/30 02:50:10;;;;;;;3.77;1.27;;;11.20;99.90;;;;;;4987504;28;20476;-66
2023/10/30 02:52:38;;;;;;;3.20;1.10;;;11.30;99.90;;;;;;4987795;28;20499;-60
2023/10/30 02:55:07;;;;;;;3.80;1.63;;;11.30;99.90;;;;;;4998240;28;20499;-61
2023/10/30 02:57:35;;;;;;;2.43;1.50;;;11.30;99.90;;;;;;4997008;28;20484;-60
2023/10/30 03:00:06;;;;;;;3.03;1.57;;;11.30;99.90;;;;;;4985878;28;20472;-61
2023/10/30 03:02:34;;;;;;;2.87;1.53;;;11.30;99.90;;;;;;4991484;28;20664;-61
2023/10/30 03:05:03;;;;;;;2.57;1.30;;;11.30;99.90;;;;;;4969095;28;20526;-61
2023/10/30 03:07:31;;;;;;;3.97;1.40;;;11.30;99.90;;;;;;4969712;28;20477;-61
2023/10/30 03:09:59;;;;;;;3.30;1.70;;;11.30;99.90;;;;;;4967627;28;20484;-61
2023/10/30 03:12:27;;;;;;;3.83;1.10;;;11.30;99.90;;;;;;4969180;28;20604;-61
2023/10/30 03:14:55;;;;;;;1.60;1.10;;;11.30;99.90;;;;;;4984894;28;20488;-60
2023/10/30 03:17:24;;;;;;;3.10;1.40;;;11.30;99.90;;;;;;4987506;28;20474;-61
2023/10/30 03:19:52;;;;;;;4.87;1.80;;;11.30;99.90;;;;;;4995474;28;20473;-61
2023/10/30 03:22:20;;;;;;;2.30;1.87;;;11.30;99.90;;;;;;4992729;28;20554;-61
2023/10/30 03:24:48;;;;;;;4.60;1.50;;;11.30;99.90;;;;;;4983355;28;20658;-61
2023/10/30 03:27:16;;;;;;;5.20;1.50;;;11.30;99.90;;;;;;4988476;28;20562;-61
2023/10/30 03:29:44;;;;;;;1.83;1.20;;;11.30;99.90;;;;;;4988279;28;20485;-61
2023/10/30 03:32:12;;;;;;;3.70;1.70;;;11.30;99.90;;;;;;4989082;28;21448;-61
2023/10/30 03:34:41;;;;;;;3.97;2.03;;;11.30;99.90;;;;;;4992702;28;20572;-61
2023/10/30 03:37:09;;;;;;;2.80;2.03;;;11.30;99.90;;;;;;4990387;28;20475;-61
2023/10/30 03:39:37;;;;;;;1.80;1.20;;;11.30;99.90;;;;;;4989253;28;20478;-61
2023/10/30 03:42:06;;;;;;;6.40;2.30;;;11.30;99.90;;;;;;4988139;28;20610;-61
2023/10/30 03:44:34;;;;;;;1.63;1.37;;;11.30;99.90;;;;;;4987746;28;20536;-61
2023/10/30 03:47:02;;;;;;;3.50;1.60;;;11.30;99.90;;;;;;4985369;28;21081;-61
2023/10/30 03:49:30;;;;;;;3.73;1.67;;;11.30;99.90;;;;;;4990159;28;20537;-61
2023/10/30 03:51:59;;;;;;;3.37;1.50;;;11.30;99.90;;;;;;4988136;28;20515;-61
2023/10/30 03:54:27;;;;;;;5.83;2.17;;;11.30;99.90;;;;;;4986021;28;20492;-61
2023/10/30 03:56:55;;;;;;;3.00;1.50;;;11.30;99.90;;;;;;4989516;28;20476;-60
2023/10/30 03:59:23;;;;;;;4.00;1.83;;;11.30;99.90;;;;;;4989487;28;20502;-60
2023/10/30 04:01:51;;;;;;;3.70;1.60;;;11.30;99.90;;;;;;4987253;28;20634;-61
2023/10/30 04:04:19;;;;;;;2.90;1.30;;;11.30;99.90;;;;;;4989233;28;20494;-61
2023/10/30 04:06:47;;;;;;;3.17;1.53;;;11.30;99.90;;;;;;4988170;28;20507;-61
2023/10/30 04:09:16;;;;;;;3.47;1.70;;;11.30;99.90;;;;;;4990582;28;20480;-61
2023/10/30 04:11:46;;;;;;;6.30;1.60;;;11.30;99.90;;;;;;4989455;28;21638;-60
2023/10/30 04:14:14;;;;;;;3.10;1.27;;;11.30;99.90;;;;;;4988837;28;20582;-61
2023/10/30 04:16:43;;;;;;;3.53;1.40;;;11.30;99.90;;;;;;4990789;28;20509;-61
2023/10/30 04:19:10;;;;;;;4.53;1.43;;;11.30;99.90;;;;;;4986159;28;20860;-61
2023/10/30 04:21:38;;;;;;;5.17;1.57;;;11.30;99.90;;;;;;4991391;28;20568;-61
2023/10/30 04:24:08;;;;;;;3.43;1.57;;;11.30;99.90;;;;;;4992613;28;20487;-61
2023/10/30 04:26:37;;;;;;;5.57;1.30;;;11.40;99.90;;;;;;4992782;28;20489;-61
2023/10/30 04:29:05;;;;;;;2.50;1.50;;;11.40;99.90;;;;;;4986759;28;21077;-61
2023/10/30 04:31:33;;;;;;;2.87;1.47;;;11.40;99.90;;;;;;4992219;28;20994;-61
2023/10/30 04:34:01;;;;;;;4.63;1.70;;;11.40;99.90;;;;;;4992048;28;20484;-62
2023/10/30 04:36:29;;;;;;;2.23;1.67;;;11.40;99.90;;;;;;4993501;28;20483;-60
2023/10/30 04:38:57;;;;;;;3.60;1.57;;;11.40;99.90;;;;;;4989090;28;20563;-60
2023/10/30 04:41:25;;;;;;;5.73;1.90;;;11.40;99.90;;;;;;4989807;28;20930;-61
2023/10/30 04:43:54;;;;;;;7.40;1.70;;;11.40;99.90;;;;;;4992762;28;21024;-61
2023/10/30 04:46:22;;;;;;;3.33;1.70;;;11.40;99.90;;;;;;4995702;28;20496;-61
2023/10/30 04:48:50;;;;;;;7.20;1.70;;;11.40;99.90;;;;;;4989750;28;20600;-62
2023/10/30 04:51:18;;;;;;;6.30;1.73;;;11.40;99.90;;;;;;4991901;28;21874;-61
2023/10/30 04:53:46;;;;;;;5.73;1.93;;;11.40;99.90;;;;;;4992496;28;20957;-61
2023/10/30 04:56:14;;;;;;;3.80;1.67;;;11.30;99.90;;;;;;4994047;28;20868;-61
2023/10/30 04:58:42;;;;;;;5.80;1.80;;;11.30;99.90;;;;;;4989392;28;20483;-60
2023/10/30 05:01:13;;;;;;;2.60;1.50;;;11.30;99.90;;;;;;4989025;28;20489;-63
2023/10/30 05:03:41;;;;;;;4.67;1.67;;;11.30;99.90;;;;;;4996679;28;20488;-61
2023/10/30 05:06:09;;;;;;;4.80;2.27;;;11.40;99.90;;;;;;4995915;28;20484;-61
2023/10/30 05:08:37;;;;;;;5.13;2.00;;;11.40;99.90;;;;;;4989988;28;20473;-61
2023/10/30 05:11:05;;;;;;;5.60;2.10;;;11.40;99.90;;;;;;4989601;28;20568;-61
2023/10/30 05:13:34;;;;;;;9.23;1.63;;;11.40;99.90;;;;;;4980247;28;20584;-61
2023/10/30 05:16:02;;;;;;;3.77;1.73;;;11.40;99.90;;;;;;4969942;28;20589;-61
2023/10/30 05:18:32;;;;;;;7.37;2.00;;;11.40;99.90;;;;;;4971543;28;20476;-61
2023/10/30 05:21:00;;;;;;;5.23;1.60;;;11.40;99.90;;;;;;4971851;28;20486;-61
2023/10/30 05:23:28;;;;;;;5.50;2.10;;;11.40;99.90;;;;;;4976141;28;20485;-61
2023/10/30 05:25:56;;;;;;;4.57;2.50;;;11.40;99.90;;;;;;4989956;28;20591;-60
2023/10/30 05:28:24;;;;;;;4.00;1.93;;;11.30;99.90;;;;;;4997339;28;20563;-61
2023/10/30 05:30:53;;;;;;;5.70;1.90;;;11.30;99.90;;;;;;4996583;28;20479;-61
2023/10/30 05:33:22;;;;;;;2.60;1.60;;;11.30;99.90;;;;;;4989516;28;20776;-62
2023/10/30 05:35:53;;;;;;;5.30;1.63;;;11.30;99.90;;;;;;4992815;28;20476;-61
2023/10/30 05:38:22;;;;;;;4.10;1.50;;;11.30;99.90;;;;;;4991048;28;21038;-61
2023/10/30 05:40:50;;;;;;;5.57;2.47;;;11.30;99.90;;;;;;4989914;28;20508;-61
2023/10/30 05:43:18;;;;;;;5.30;1.70;;;11.30;99.90;;;;;;4986832;28;20506;-61
2023/10/30 05:45:47;;;;;;;3.03;1.50;;;11.30;99.90;;;;;;4991400;28;20579;-61
2023/10/30 05:48:15;;;;;;;4.73;1.87;;;11.30;99.90;;;;;;4996025;28;20923;-61
2023/10/30 05:50:43;;;;;;;8.00;1.83;;;11.20;99.90;;;;;;4995421;28;20733;-62
2023/10/30 05:53:13;;;;;;;6.53;1.90;;;11.20;99.90;;;;;;4997061;28;20520;-62
2023/10/30 05:55:41;;;;;;;3.70;1.97;;;11.20;99.90;;;;;;4994231;28;20986;-62
2023/10/30 05:58:09;;;;;;;4.97;1.80;;;11.30;99.90;;;;;;4993761;28;20479;-61
2023/10/30 06:00:37;;;;;;;5.13;1.97;;;11.30;99.90;;;;;;4993444;28;20476;-62
2023/10/30 06:03:07;;;;;;;2.97;2.00;;;11.20;99.90;;;;;;4994531;28;20899;-61
2023/10/30 06:05:35;;;;;;;4.63;1.70;;;11.20;99.90;;;;;;4994239;28;20643;-61
2023/10/30 06:08:03;;;;;;;5.13;1.67;;;11.20;99.90;;;;;;4996018;28;20472;-61
2023/10/30 06:10:33;;;;;;;3.90;1.63;;;11.20;99.90;;;;;;4992418;28;20479;-61
2023/10/30 06:13:00;;;;;;;4.50;2.03;;;11.20;99.90;;;;;;4989960;28;20564;-61
2023/10/30 06:15:28;;;;;;;4.90;1.70;;;11.20;99.90;;;;;;4993790;28;20555;-61
2023/10/30 06:17:57;;;;;;;4.63;1.60;;;11.10;99.90;;;;;;4994045;28;20472;-61
2023/10/30 06:20:25;;;;;;;5.30;1.90;;;11.20;99.90;;;;;;4983353;28;20468;-61
2023/10/30 06:22:53;;;;;;;5.30;1.60;;;11.20;99.90;;;;;;4990257;28;20611;-61
2023/10/30 06:25:21;;;;;;;7.33;1.77;;;11.20;99.90;;;;;;4990908;28;20586;-62
2023/10/30 06:27:50;;;;;;;3.50;2.07;;;11.10;99.90;;;;;;4990274;28;20555;-62
2023/10/30 06:30:19;;;;;;;3.80;2.07;;;11.20;99.90;;;;;;4996616;28;20479;-61
2023/10/30 06:32:47;;;;;;;3.70;2.00;;;11.10;99.90;;;;;;4989990;28;20917;-61
2023/10/30 06:35:15;;;;;;;7.57;2.27;;;11.20;99.90;;;;;;4989502;28;20485;-62
2023/10/30 06:37:43;;;;;;;6.70;2.47;;;11.20;99.90;;;;;;4987557;28;20559;-61
2023/10/30 06:40:12;;;;;;;7.23;2.10;;;11.20;99.90;;;;;;4992950;28;21268;-61
2023/10/30 06:42:40;;;;;;;8.00;1.83;;;11.10;99.90;;;;;;4986998;28;20842;-60
2023/10/30 06:45:10;;;;;;;6.00;1.83;;;11.10;99.90;;;;;;4987798;28;20476;-61
2023/10/30 06:47:38;;;;;;;4.07;2.00;;;11.10;99.90;;;;;;4987408;28;20567;-62
2023/10/30 06:50:07;;;;;;;6.03;1.90;;;11.10;99.90;;;;;;4989095;28;20913;-61
2023/10/30 06:52:35;;;;;;;6.37;2.10;;;11.10;99.90;;;;;;4988150;28;20579;-61
2023/10/30 06:55:03;;;;;;;4.50;1.80;;;11.10;99.90;;;;;;4986545;28;20484;-61
2023/10/30 06:57:31;;;;;;;4.37;2.97;;;11.10;99.90;;;;;;4990784;28;20499;-61
2023/10/30 06:59:59;;;;;;;7.50;2.63;;;11.10;99.90;;;;;;4991747;28;20520;-61
2023/10/30 07:02:29;;;;;;;3.70;1.80;;;11.10;99.90;;;;;;4990349;28;20853;-63
2023/10/30 07:04:57;;;;;;;4.23;2.17;;;11.10;99.90;;;;;;4988267;28;20513;-61
2023/10/30 07:07:25;;;;;;;7.83;2.10;;;11.10;99.90;;;;;;4995219;28;20499;-61
2023/10/30 07:09:53;;;;;;;4.40;1.77;;;11.10;99.90;;;;;;4985496;28;20526;-61
2023/10/30 07:12:21;;;;;;;3.57;1.70;;;11.10;99.90;;;;;;4988625;28;20492;-61
2023/10/30 07:14:49;;;;;;;6.40;2.00;;;11.10;99.90;;;;;;4991608;28;20492;-61
2023/10/30 07:17:17;;;;;;;3.87;1.87;;;11.10;99.90;;;;;;4987576;28;20698;-61
2023/10/30 07:19:48;;;;;;;7.27;1.73;;;11.10;99.90;;;;;;4988376;28;20472;-61
2023/10/30 07:22:16;;;;;;;4.53;1.87;;;11.10;99.90;;;;;;4988891;28;20484;-62
2023/10/30 07:24:44;;;;;;;4.70;2.80;;;11.10;99.90;;;;;;4986278;28;20848;-61
2023/10/30 07:27:13;;;;;;;7.10;2.10;;;11.10;99.90;;;;;;4976292;28;20497;-62
2023/10/30 07:29:44;;;;;;;5.60;2.40;;;11.10;99.90;;;;;;4983589;28;20978;-61
2023/10/30 07:32:12;;;;;;;4.73;1.70;;;11.10;99.90;;;;;;4986647;28;20489;-61
2023/10/30 07:34:41;;;;;;;7.17;2.47;;;11.10;99.90;;;;;;4991677;28;20496;-61
2023/10/30 07:37:11;;;;;;;3.60;1.70;;;11.10;99.90;;;;;;4987195;28;20722;-61
2023/10/30 07:39:40;;;;;;;5.70;2.10;;;11.10;99.90;;;;;;4992815;28;20472;-61
2023/10/30 07:42:09;;;;;;;6.10;2.20;;;11.10;99.90;;;;;;4989424;28;20580;-62
2023/10/30 07:44:37;;;;;;;6.00;2.23;;;11.10;99.90;;;;;;4981531;28;20553;-61
2023/10/30 07:47:06;;;;;;;5.10;1.67;;;11.10;99.90;;;;;;4991005;28;20504;-61
2023/10/30 07:49:34;;;;;;;5.50;2.40;;;11.10;99.90;;;;;;4998165;28;20483;-62
2023/10/30 07:52:02;;;;;;;4.13;2.07;;;11.10;99.90;;;;;;4992387;28;20527;-61
2023/10/30 07:54:31;;;;;;;3.13;1.70;;;11.10;99.90;;;;;;4987061;28;20763;-62
2023/10/30 07:56:59;;;;;;;4.23;1.83;;;11.10;99.90;;;;;;5007961;28;20471;-61
2023/10/30 07:59:27;;;;;;;4.33;1.97;;;11.10;99.90;;;;;;5001373;28;20939;-61
2023/10/30 08:01:55;;;;;;;3.83;2.03;;;11.10;99.90;;;;;;4991214;28;21018;-61
2023/10/30 08:04:23;;;;;;;4.37;2.00;;;11.10;99.90;;;;;;4997118;28;20484;-63
2023/10/30 08:06:51;;;;;;;3.73;1.90;;;11.20;99.90;;;;;;4995228;28;21048;-62
2023/10/30 08:09:19;;;;;;;4.23;1.90;;;11.20;99.90;;;;;;4991898;28;21559;-61
2023/10/30 08:11:49;;;;;;;9.87;2.50;;;11.20;99.90;;;;;;4990372;28;20500;-61
2023/10/30 08:14:17;;;;;;;6.10;1.90;;;11.30;99.90;;;;;;4995011;28;20545;-61
2023/10/30 08:16:45;;;;;;;5.87;2.20;;;11.30;99.90;;;;;;4994902;28;20550;-61
2023/10/30 08:19:13;;;;;;;7.67;2.30;;;11.30;99.90;;;;;;4987644;28;20563;-61
2023/10/30 08:21:41;;;;;;;7.30;2.20;;;11.40;99.90;;;;;;4994647;28;20473;-61
2023/10/30 08:24:10;;;;;;;4.97;1.90;;;11.50;99.90;;;;;;4993507;28;20505;-62
2023/10/30 08:26:38;;;;;;;3.83;1.63;;;11.50;99.90;;;;;;4989527;28;20502;-62
2023/10/30 08:29:09;;;;;;;4.87;1.90;;;11.50;99.90;;;;;;4995302;28;20472;-62
2023/10/30 08:31:38;;;;;;;7.43;2.13;;;11.60;99.90;;;;;;4990702;28;20479;-61
2023/10/30 08:34:06;;;;;;;4.80;1.97;;;11.60;99.90;;;;;;4999766;28;20551;-62
2023/10/30 08:36:34;;;;;;;6.80;2.53;;;11.70;99.90;;;;;;4998471;28;20966;-66
2023/10/30 08:39:04;;;;;;;5.37;2.00;;;11.70;99.90;;;;;;5002946;28;21171;-65
2023/10/30 08:41:33;;;;;;;3.20;1.97;;;11.70;99.90;;;;;;4997905;28;20558;-65
2023/10/30 08:44:01;;;;;;;5.30;1.77;;;11.80;99.90;;;;;;4995835;28;20997;-65
2023/10/30 08:46:30;;;;;;;4.20;1.70;;;11.80;99.90;;;;;;4994864;28;21020;-64
2023/10/30 08:48:58;;;;;;;4.20;2.13;;;11.90;99.90;;;;;;4995162;28;20870;-63
2023/10/30 08:51:27;;;;;;;6.83;1.83;;;11.90;99.90;;;;;;4990333;28;20477;-63
2023/10/30 08:53:55;;;;;;;3.03;1.53;;;12.00;99.90;;;;;;4994616;28;20485;-63
2023/10/30 08:56:23;;;;;;;10.30;2.93;;;12.10;99.90;;;;;;4992583;28;20464;-61
2023/10/30 08:58:51;;;;;;;4.10;1.83;;;12.10;99.90;;;;;;4993124;28;21008;-65
2023/10/30 09:01:20;;;;;;;4.77;1.87;;;12.10;99.90;;;;;;4995809;28;20563;-65
2023/10/30 09:03:50;;;;;;;3.33;2.20;;;12.20;99.90;;;;;;4994798;28;20493;-66
2023/10/30 09:06:21;;;;;;;4.57;1.70;;;12.20;99.90;;;;;;4994940;28;20469;-65
2023/10/30 09:08:49;;;;;;;7.67;2.00;;;12.30;99.90;;;;;;4996626;28;20482;-65
2023/10/30 09:11:17;;;;;;;3.70;1.87;;;12.30;99.90;;;;;;4995267;28;20740;-65
2023/10/30 09:13:45;;;;;;;4.80;1.60;;;12.40;99.90;;;;;;4989441;28;20498;-65
2023/10/30 09:16:13;;;;;;;5.20;1.93;;;12.40;99.90;;;;;;4995787;28;20993;-65
2023/10/30 09:18:41;;;;;;;4.83;1.60;;;12.50;99.90;;;;;;5001049;28;20465;-67
2023/10/30 09:21:12;;;;;;;4.30;1.97;;;12.50;99.90;;;;;;4992778;28;20845;-65
2023/10/30 09:23:42;;;;;;;4.20;1.53;;;12.60;99.90;;;;;;4986039;28;21505;-65
2023/10/30 09:26:11;;;;;;;2.73;1.57;;;12.60;99.90;;;;;;4992024;28;21017;-64
2023/10/30 09:28:39;;;;;;;5.67;1.90;;;12.70;99.90;;;;;;4991364;28;21025;-64
2023/10/30 09:31:07;;;;;;;3.10;1.80;;;12.70;99.90;;;;;;4988713;28;21066;-67
2023/10/30 09:33:35;;;;;;;2.73;1.63;;;12.80;99.90;;;;;;4988761;28;20610;-66
2023/10/30 09:36:03;;;;;;;2.60;1.70;;;12.80;99.90;;;;;;4987462;28;20467;-68
2023/10/30 09:38:32;;;;;;;4.90;1.83;;;12.90;99.90;;;;;;4990803;28;21034;-64
2023/10/30 09:41:04;;;;;;;3.90;1.77;;;13.00;99.90;;;;;;4999376;28;20472;-64
2023/10/30 09:43:33;;;;;;;4.10;1.60;;;13.00;99.90;;;;;;4996920;28;20483;-63
2023/10/30 09:46:02;;;;;;;5.33;1.87;;;13.10;99.90;;;;;;4996054;28;20495;-64
2023/10/30 09:48:33;;;;;;;3.80;1.90;;;13.10;99.90;;;;;;4995289;28;20854;-65
2023/10/30 09:51:03;;;;;;;5.93;1.60;;;13.20;99.90;;;;;;4990617;28;20469;-62
2023/10/30 09:53:34;;;;;;;3.13;1.50;;;13.30;99.90;;;;;;4992925;28;20503;-63
2023/10/30 09:56:04;;;;;;;5.20;1.50;;;13.30;99.90;;;;;;4997021;28;20476;-63
2023/10/30 09:58:33;;;;;;;3.93;1.53;;;13.40;99.90;;;;;;4996404;28;20556;-66
2023/10/30 10:01:01;;;;;;;5.07;1.73;;;13.40;99.90;;;;;;4996310;28;20474;-64
2023/10/30 10:03:29;;;;;;;4.50;1.73;;;13.50;99.90;;;;;;4992715;28;20505;-64
2023/10/30 10:05:59;;;;;;;5.53;1.50;;;13.50;99.90;;;;;;4996716;28;20477;-64
2023/10/30 10:08:28;;;;;;;4.90;1.87;;;13.60;99.90;;;;;;4999593;28;21006;-64
2023/10/30 10:10:59;;;;;;;3.90;2.00;;;13.80;99.90;;;;;;4998700;28;21003;-64
2023/10/30 10:13:29;;;;;;;4.70;1.97;;;13.90;99.90;;;;;;4987886;28;21425;-64
2023/10/30 10:15:58;;;;;;;5.00;1.50;;;14.00;99.90;;;;;;4986374;28;20501;-63
2023/10/30 10:18:28;;;;;;;6.83;1.80;;;14.10;99.90;;;;;;4992483;28;20464;-63
2023/10/30 10:20:58;;;;;;;7.00;1.57;;;14.20;99.90;;;;;;4991667;28;20509;-63
2023/10/30 10:23:30;;;;;;;6.80;1.90;;;14.30;99.90;;;;;;4993294;28;20599;-64
2023/10/30 10:26:03;;;;;;;4.13;1.63;;;14.30;99.90;;;;;;4995820;28;20488;-65
2023/10/30 10:28:31;;;;;;;6.13;1.57;;;14.30;99.90;;;;;;4994570;28;21130;-64
2023/10/30 10:31:00;;;;;;;5.30;1.90;;;14.30;99.90;;;;;;4988935;28;20472;-64
2023/10/30 10:33:30;;;;;;;3.47;1.60;;;14.40;99.90;;;;;;4993499;28;21039;-63
2023/10/30 10:36:01;;;;;;;2.33;1.60;;;14.40;99.90;;;;;;4997463;28;20994;-65
2023/10/30 10:38:30;;;;;;;4.43;1.70;;;14.50;99.90;;;;;;4989123;28;20472;-65
2023/10/30 10:40:59;;;;;;;4.03;1.90;;;14.50;99.90;;;;;;4998436;28;20484;-65
2023/10/30 10:43:29;;;;;;;4.87;2.03;;;14.60;99.90;;;;;;4990695;28;20509;-65
2023/10/30 10:45:58;;;;;;;6.30;2.00;;;14.70;99.90;;;;;;4990694;28;20480;-65
2023/10/30 10:48:28;;;;;;;6.90;1.77;;;14.80;99.90;;;;;;4991109;28;20554;-65
2023/10/30 10:50:57;;;;;;;4.03;1.90;;;14.90;99.90;;;;;;4990928;28;20488;-65
2023/10/30 10:53:29;;;;;;;2.40;1.93;;;15.10;99.90;;;;;;4990815;28;20512;-66
2023/10/30 10:56:07;;;;;;;6.80;2.13;;;15.20;99.90;;;;;;4995108;28;20497;-61
2023/10/30 10:58:42;;;;;;;6.37;2.73;;;15.20;99.90;;;;;;4995591;28;21030;-66
2023/10/30 11:01:17;;;;;;;3.20;1.97;;;15.30;99.90;;;;;;4994607;28;20665;-64
2023/10/30 11:03:48;;;;;;;4.40;1.80;;;15.40;99.90;;;;;;4989820;28;21101;-63
2023/10/30 11:06:18;;;;;;;3.10;1.73;;;15.50;99.90;;;;;;4996329;28;20472;-63
2023/10/30 11:08:54;;;;;;;4.87;1.90;;;15.60;99.90;;;;;;4998051;28;20503;-63
2023/10/30 11:11:30;;;;;;;6.30;1.77;;;15.70;99.90;;;;;;5001188;28;20507;-62
2023/10/30 11:14:08;;;;;;;3.70;1.70;;;15.70;99.90;;;;;;4997025;28;20480;-64
2023/10/30 11:16:44;;;;;;;4.10;1.77;;;15.80;99.90;;;;;;4990235;28;20559;-62
2023/10/30 11:19:12;;;;;;;6.50;2.80;;;15.80;99.90;;;;;;4990548;28;20480;-63
2023/10/30 11:21:41;;;;;;;8.40;2.40;;;16.00;99.90;;;;;;4992286;28;20552;-66
2023/10/30 11:24:10;;;;;;;4.80;2.20;;;16.40;99.90;;;;;;4991085;28;20496;-63
2023/10/30 11:26:43;;;;;;;3.47;1.80;;;16.40;99.90;;;;;;4985045;28;20471;-63
2023/10/30 11:29:15;;;;;;;5.23;2.27;;;16.30;99.90;;;;;;4987978;28;20493;-63
2023/10/30 11:31:59;;;;;;;5.93;2.43;;;16.10;99.90;;;;;;4987914;28;20476;-64
2023/10/30 11:34:34;;;;;;;4.13;1.90;;;15.90;99.90;;;;;;4996811;28;20489;-62
2023/10/30 11:37:10;;;;;;;5.50;2.00;;;15.80;99.90;;;;;;4998548;28;20476;-64
2023/10/30 11:39:39;;;;;;;4.67;1.50;;;15.80;99.90;;;;;;5002728;28;20978;-64
2023/10/30 11:42:33;;;;;;;7.50;2.20;;;16.60;99.90;;;;;;4993846;28;20499;-64
2023/10/30 11:45:25;;;;;;;3.60;2.57;;;16.80;99.90;;;;;;4988016;28;23234;-63
2023/10/30 11:48:04;;;;;;;5.70;2.20;;;17.50;99.90;;;;;;4993651;28;20484;-63
2023/10/30 11:50:34;;;;;;;2.43;1.77;;;18.40;99.90;;;;;;4994255;28;20496;-64
2023/10/30 11:53:09;;;;;;;6.03;2.17;;;20.40;99.90;;;;;;4986057;28;20670;-63
2023/10/30 11:55:38;;;;;;;5.07;1.90;;;22.20;99.90;;;;;;4989517;28;20598;-65
2023/10/30 11:58:10;;;;;;;3.87;1.90;;;22.60;99.90;;;;;;4997237;28;20561;-64
2023/10/30 12:00:40;;;;;;;2.60;1.77;;;22.90;99.90;;;;;;4998832;28;20592;-64
2023/10/30 12:03:09;;;;;;;3.23;1.70;;;22.40;99.90;;;;;;4992518;28;21093;-65
2023/10/30 12:05:37;;;;;;;3.10;1.47;;;23.40;99.90;;;;;;4989130;28;20567;-65
2023/10/30 12:08:06;;;;;;;3.53;2.20;;;24.50;99.90;;;;;;4995664;28;20472;-66
2023/10/30 12:10:34;;;;;;;2.33;1.60;;;24.20;98.90;;;;;;4993594;28;20531;-64
2023/10/30 12:13:04;;;;;;;8.03;2.40;;;23.40;99.90;;;;;;4991535;28;20518;-65
2023/10/30 12:15:33;;;;;;;5.03;2.43;;;23.70;99.90;;;;;;4999682;28;20479;-64
2023/10/30 12:18:03;;;;;;;3.30;1.90;;;23.90;99.10;;;;;;4991285;28;20976;-65
2023/10/30 12:20:31;;;;;;;4.43;2.00;;;23.10;99.90;;;;;;4997178;28;20475;-65
2023/10/30 12:22:59;;;;;;;5.20;2.10;;;23.00;99.90;;;;;;4989452;28;20488;-65
2023/10/30 12:25:28;;;;;;;3.00;1.80;;;23.60;99.90;;;;;;4989729;28;20564;-64
2023/10/30 12:28:03;;;;;;;6.13;2.10;;;24.50;96.50;;;;;;4992486;28;20550;-65
2023/10/30 12:30:38;;;;;;;3.37;1.67;;;24.90;92.00;;;;;;4994117;28;20527;-63
2023/10/30 12:33:13;;;;;;;5.10;2.37;;;24.80;89.20;;;;;;4997677;28;20490;-65
2023/10/30 12:35:42;;;;;;;3.50;1.80;;;24.30;93.70;;;;;;4998504;28;20525;-64
2023/10/30 12:38:14;;;;;;;2.97;1.70;;;23.90;95.30;;;;;;4993904;28;20559;-65
2023/10/30 12:40:43;;;;;;;2.63;1.70;;;24.00;97.80;;;;;;4989852;28;20833;-64
2023/10/30 12:43:13;;;;;;;3.00;1.50;;;25.00;93.00;;;;;;4987644;28;20542;-63
2023/10/30 12:45:42;;;;;;;4.83;1.80;;;26.60;77.90;;;;;;4988592;28;20477;-64
2023/10/30 12:48:10;;;;;;;3.73;1.73;;;28.10;64.60;;;;;;4991436;28;20797;-64
2023/10/30 12:50:38;;;;;;;2.10;1.70;;;28.70;56.20;;;;;;4988534;28;20525;-64
2023/10/30 12:53:06;;;;;;;4.13;1.83;;;28.70;53.10;;;;;;4988271;28;20481;-64
2023/10/30 12:55:35;;;;;;;2.57;1.57;;;28.70;54.10;;;;;;4991429;28;20528;-63
2023/10/30 12:58:03;;;;;;;3.00;1.80;;;28.60;53.00;;;;;;4987780;28;20465;-63